Ajo, AZ

10:33 AM MST on July 28, 2014 (GMT -0700)
KAZAJO2 Elev 1739 ft | 32.38 °N, 112.86 °W | Change Station

Current weather conditions updated 3 minutes ago

Mostly Cloudy
Mostly Cloudy
93.7 °F
Feels Like 95 °F
N
2.0
Wind Variable Wind from NE
Gusts 2.0 mph

Today is forecast to be Warmer than yesterday.

Today
High -- | Low -- °F
--% Chance of Precip.
Yesterday
High -- | Low -- °F
Precip. -- in
5:43 AM 7:32 PM
Waxing Crescent, 3% visible
Pressure 29.99 in
Visibility 10.0 miles
Clouds Mostly Cloudy 16000 ft
Heat Index 95 °F
Dew Point 64 °F
Humidity 37%
Rainfall 0.00 in
Snow Depth Not available.
UV 4 out of 12
Pollen 3.40 out of 12
Air Quality Not available.
Flu Activity Not available.
METAR KGXF 281655Z 06004KT 10SM BKN160 36/14 A3005 RMK SLP153

More Conditions Fewer Conditions

Pressure 29.99 in
Visibility 10.0 miles
Clouds Mostly Cloudy 16000 ft
Heat Index 95 °F
Dew Point 64 °F
Humidity 37%
Rainfall 0.00 in
Snow Depth Not available.
UV 4 out of 12
Pollen 3.40 out of 12
Air Quality Not available.
Flu Activity Not available.
METAR KGXF 281655Z 06004KT 10SM BKN160 36/14 A3005 RMK SLP153

More Conditions Fewer Conditions

10-Day Weather Forecast

Almanac

Astronomy

Jul. 28, 2014 Rise Set
Actual Time 5:43 AM MST 7:32 PM MST
Civil Twilight 5:16 AM MST 7:59 PM MST
Nautical Twilight 4:43 AM MST 8:31 PM MST
Astronomical Twilight 4:09 AM MST 9:06 PM MST
Moon 7:19 AM MST 8:26 PM MST
Length of Visible Light 14h 42m
Length of Day
13h 48m
Tomorrow will be 1m 23s shorter.
Waxing Crescent, 3% of the Moon is Illuminated
Today
Waxing Crescent
Aug 3
First Quarter
Aug 10
Full
Aug 17
Last Quarter
Aug 25
New

Today's Extremes

State Highs State Lows

Community

WunderPhotos

Upload Photos

1,738,421 photos uploaded!

WunderBlogs® & News

By Dr. Jeff Masters
Director of Meteorology, Weather Underground
By Kari Strenfel
Meteorologist, Weather Underground
By Christopher C. Burt
Weather Historian, Weather Underground
July 28, 2014
July 28, 2014
July 28, 2014

Nearby

Snow Depth

Station Depth Elevation
Workman Creek 0 in 6900 ft
Mormon Mountain 0 in 7500 ft
White Horse Lake 0 in 7180 ft
Wildcat 0 in 7850 ft
Maverick Fork 0 in 9200 ft

Earthquake Activity

City Distance Mag. Time & Date
San Felipe, Mexico 108 miles 2.9 1:35 AM MST
2014-07-22
Estacion Coahuila, Mexico 108 miles 2.5 1:34 AM MST
2014-07-22
Minimum magnitude displayed is 2.5.

Coastal Water Temperatures

Place Temperature
No Stations Reporting

Nearby Weather Stations

Station Location Temp. Heat Index Dew Point Humidity Wind Precip. Elev Updated Type
Ajo, AZ 93.7 °F 95 °F 64 °F 37% NE  at  2.0 mph 0.00 in / hr 1739 ft 10:30 AM MST Normal

Show More Stations Show Fewer Stations